PWSweather.com
Personal Weather Stations
Station Observations

KentGB

Lat: 51.355058, Lon: 1.256518

Elevation: 24

Station Type: Davis

http://stnichweather.co.uk

High Low Average
Temperature 68.4°F20.2°C 53.6°F12.0°C 61.0°F16.1°C
Dew Point 61.2°F16.2°C 53.6°F12.0°C 57.6°F14.2°C
Winds 12.0 mph 19.3 kmh Calm Calm 6.0 mph ESE9.7 kmh ESE
Wind Gusts 22.0 mph35.4 kmh 1.0 mph1.6 kmh 12.0 mph19.3 kmh
Humidity 100% 76% 89%
Pressure 30.04 in1017.3 mb 29.95 in1014.2 mb -
Precipitation 0.01 in0.3 mm - -
Hour Temp Dew Point Humidity Winds Wind Gusts Pressure Precip Precip Rate Daily Precip Total
12:00 AM 55.0°F12.8°C 55.0°F12.8°C 100% 1.0 mph N1.6 kmh N 6.0 mph9.7 kmh 30.04 in1017.3 mb 0.00 in0.0 mm 0.00 in0.0 mm 0.00 in0.0 mm
12:15 AM 55.2°F12.9°C 55.2°F12.9°C 100% Calm Calm 3.0 mph4.8 kmh 30.04 in1017.3 mb 0.00 in0.0 mm 0.00 in0.0 mm 0.00 in0.0 mm
12:30 AM 55.4°F13.0°C 55.4°F13.0°C 100% 2.0 mph N3.2 kmh N 7.0 mph11.3 kmh 30.03 in1016.9 mb 0.00 in0.0 mm 0.00 in0.0 mm 0.00 in0.0 mm
12:45 AM 55.2°F12.9°C 55.2°F12.9°C 100% 2.0 mph N3.2 kmh N 8.0 mph12.9 kmh 30.03 in1016.9 mb 0.00 in0.0 mm 0.00 in0.0 mm 0.00 in0.0 mm
01:00 AM 55.2°F12.9°C 55.2°F12.9°C 100% 2.0 mph N3.2 kmh N 8.0 mph12.9 kmh 30.03 in1016.9 mb 0.00 in0.0 mm 0.00 in0.0 mm 0.00 in0.0 mm
01:15 AM 55.2°F12.9°C 55.2°F12.9°C 100% 1.0 mph N1.6 kmh N 6.0 mph9.7 kmh 30.03 in1016.9 mb 0.00 in0.0 mm 0.00 in0.0 mm 0.00 in0.0 mm
01:30 AM 54.9°F12.7°C 54.9°F12.7°C 100% 4.0 mph NNW6.4 kmh NNW 8.0 mph12.9 kmh 30.03 in1016.9 mb 0.00 in0.0 mm 0.00 in0.0 mm 0.00 in0.0 mm
01:45 AM 54.3°F12.4°C 54.3°F12.4°C 100% 6.0 mph NNW9.7 kmh NNW 11.0 mph17.7 kmh 30.02 in1016.6 mb 0.00 in0.0 mm 0.00 in0.0 mm 0.00 in0.0 mm
02:00 AM 53.8°F12.1°C 53.8°F12.1°C 100% 6.0 mph NNW9.7 kmh NNW 11.0 mph17.7 kmh 30.02 in1016.6 mb 0.00 in0.0 mm 0.00 in0.0 mm 0.00 in0.0 mm
02:15 AM 53.6°F12.0°C 53.6°F12.0°C 100% 6.0 mph NNW9.7 kmh NNW 11.0 mph17.7 kmh 30.02 in1016.6 mb 0.00 in0.0 mm 0.00 in0.0 mm 0.00 in0.0 mm
02:30 AM 53.6°F12.0°C 53.6°F12.0°C 100% 7.0 mph N11.3 kmh N 12.0 mph19.3 kmh 30.02 in1016.6 mb 0.00 in0.0 mm 0.00 in0.0 mm 0.00 in0.0 mm
02:45 AM 53.8°F12.1°C 53.8°F12.1°C 100% 3.0 mph N4.8 kmh N 7.0 mph11.3 kmh 30.02 in1016.6 mb 0.00 in0.0 mm 0.00 in0.0 mm 0.00 in0.0 mm
03:00 AM 54.0°F12.2°C 54.0°F12.2°C 100% 3.0 mph N4.8 kmh N 8.0 mph12.9 kmh 30.01 in1016.3 mb 0.00 in0.0 mm 0.00 in0.0 mm 0.00 in0.0 mm
03:15 AM 53.8°F12.1°C 53.8°F12.1°C 100% 3.0 mph N4.8 kmh N 7.0 mph11.3 kmh 30.01 in1016.3 mb 0.00 in0.0 mm 0.00 in0.0 mm 0.00 in0.0 mm
03:30 AM 54.1°F12.3°C 54.1°F12.3°C 100% 5.0 mph N8.0 kmh N 10.0 mph16.1 kmh 30.01 in1016.3 mb 0.00 in0.0 mm 0.00 in0.0 mm 0.00 in0.0 mm
03:45 AM 54.7°F12.6°C 54.7°F12.6°C 100% 4.0 mph N6.4 kmh N 9.0 mph14.5 kmh 30.01 in1016.3 mb 0.00 in0.0 mm 0.00 in0.0 mm 0.00 in0.0 mm
04:00 AM 54.7°F12.6°C 54.7°F12.6°C 100% 4.0 mph NNW6.4 kmh NNW 8.0 mph12.9 kmh 30.01 in1016.3 mb 0.00 in0.0 mm 0.00 in0.0 mm 0.00 in0.0 mm
04:15 AM 54.9°F12.7°C 54.9°F12.7°C 100% 1.0 mph NNW1.6 kmh NNW 7.0 mph11.3 kmh 30.02 in1016.6 mb 0.00 in0.0 mm 0.00 in0.0 mm 0.00 in0.0 mm
04:30 AM 55.0°F12.8°C 55.0°F12.8°C 100% Calm Calm 1.0 mph1.6 kmh 30.02 in1016.6 mb 0.00 in0.0 mm 0.00 in0.0 mm 0.00 in0.0 mm
04:45 AM 55.4°F13.0°C 55.4°F13.0°C 100% Calm Calm 3.0 mph4.8 kmh 30.02 in1016.6 mb 0.00 in0.0 mm 0.00 in0.0 mm 0.00 in0.0 mm
05:00 AM 55.9°F13.3°C 55.9°F13.3°C 100% 4.0 mph NNW6.4 kmh NNW 8.0 mph12.9 kmh 30.02 in1016.6 mb 0.00 in0.0 mm 0.00 in0.0 mm 0.00 in0.0 mm
05:15 AM 55.9°F13.3°C 55.9°F13.3°C 100% 1.0 mph N1.6 kmh N 7.0 mph11.3 kmh 30.02 in1016.6 mb 0.00 in0.0 mm 0.00 in0.0 mm 0.00 in0.0 mm
05:30 AM 56.5°F13.6°C 56.5°F13.6°C 100% 3.0 mph NNW4.8 kmh NNW 7.0 mph11.3 kmh 30.03 in1016.9 mb 0.00 in0.0 mm 0.00 in0.0 mm 0.00 in0.0 mm
05:45 AM 56.1°F13.4°C 56.1°F13.4°C 100% 2.0 mph N3.2 kmh N 7.0 mph11.3 kmh 30.03 in1016.9 mb 0.00 in0.0 mm 0.00 in0.0 mm 0.00 in0.0 mm
06:00 AM 56.5°F13.6°C 56.5°F13.6°C 100% Calm Calm 2.0 mph3.2 kmh 30.03 in1016.9 mb 0.00 in0.0 mm 0.00 in0.0 mm 0.00 in0.0 mm
06:15 AM 56.5°F13.6°C 56.5°F13.6°C 100% 1.0 mph NNW1.6 kmh NNW 6.0 mph9.7 kmh 30.03 in1016.9 mb 0.01 in0.3 mm 0.04 in1.0 mm 0.01 in0.3 mm
06:30 AM 57.0°F13.9°C 57.0°F13.9°C 100% Calm Calm 2.0 mph3.2 kmh 30.03 in1016.9 mb 0.01 in0.3 mm 0.00 in0.0 mm 0.01 in0.3 mm
06:45 AM 57.2°F14.0°C 57.2°F14.0°C 100% 3.0 mph N4.8 kmh N 9.0 mph14.5 kmh 30.03 in1016.9 mb 0.01 in0.3 mm 0.00 in0.0 mm 0.01 in0.3 mm
07:00 AM 56.7°F13.7°C 56.7°F13.7°C 100% 5.0 mph N8.0 kmh N 13.0 mph20.9 kmh 30.02 in1016.6 mb 0.01 in0.3 mm 0.00 in0.0 mm 0.01 in0.3 mm
07:15 AM 56.7°F13.7°C 56.7°F13.7°C 100% 7.0 mph N11.3 kmh N 13.0 mph20.9 kmh 30.02 in1016.6 mb 0.00 in0.0 mm 0.00 in0.0 mm 0.01 in0.3 mm
07:30 AM 57.4°F14.1°C 57.4°F14.1°C 100% 7.0 mph N11.3 kmh N 13.0 mph20.9 kmh 30.02 in1016.6 mb 0.00 in0.0 mm 0.00 in0.0 mm 0.01 in0.3 mm
07:45 AM 57.6°F14.2°C 57.6°F14.2°C 100% 7.0 mph N11.3 kmh N 11.0 mph17.7 kmh 30.01 in1016.3 mb 0.00 in0.0 mm 0.00 in0.0 mm 0.01 in0.3 mm
08:00 AM 58.8°F14.9°C 58.8°F14.9°C 100% 8.0 mph N12.9 kmh N 13.0 mph20.9 kmh 30.01 in1016.3 mb 0.00 in0.0 mm 0.00 in0.0 mm 0.01 in0.3 mm
08:15 AM 59.7°F15.4°C 59.4°F15.2°C 99% 8.0 mph N12.9 kmh N 16.0 mph25.7 kmh 30.02 in1016.6 mb 0.00 in0.0 mm 0.00 in0.0 mm 0.01 in0.3 mm
08:30 AM 61.0°F16.1°C 60.1°F15.6°C 97% 8.0 mph NNE12.9 kmh NNE 16.0 mph25.7 kmh 30.02 in1016.6 mb 0.00 in0.0 mm 0.00 in0.0 mm 0.01 in0.3 mm
08:45 AM 62.1°F16.7°C 59.7°F15.4°C 92% 8.0 mph NNE12.9 kmh NNE 14.0 mph22.5 kmh 30.02 in1016.6 mb 0.00 in0.0 mm 0.00 in0.0 mm 0.01 in0.3 mm
09:00 AM 63.3°F17.4°C 60.3°F15.7°C 90% 7.0 mph NNE11.3 kmh NNE 13.0 mph20.9 kmh 30.02 in1016.6 mb 0.00 in0.0 mm 0.00 in0.0 mm 0.01 in0.3 mm
09:15 AM 64.2°F17.9°C 59.9°F15.5°C 86% 8.0 mph NNE12.9 kmh NNE 14.0 mph22.5 kmh 30.02 in1016.6 mb 0.00 in0.0 mm 0.00 in0.0 mm 0.01 in0.3 mm
09:30 AM 64.9°F18.3°C 60.0°F15.6°C 84% 7.0 mph NNE11.3 kmh NNE 16.0 mph25.7 kmh 30.02 in1016.6 mb 0.00 in0.0 mm 0.00 in0.0 mm 0.01 in0.3 mm
09:45 AM 64.8°F18.2°C 59.8°F15.4°C 84% 7.0 mph N11.3 kmh N 14.0 mph22.5 kmh 30.02 in1016.6 mb 0.00 in0.0 mm 0.00 in0.0 mm 0.01 in0.3 mm
10:00 AM 64.6°F18.1°C 59.6°F15.3°C 84% 8.0 mph NNE12.9 kmh NNE 17.0 mph27.4 kmh 30.03 in1016.9 mb 0.00 in0.0 mm 0.00 in0.0 mm 0.01 in0.3 mm
10:15 AM 63.9°F17.7°C 58.9°F14.9°C 84% 8.0 mph N12.9 kmh N 13.0 mph20.9 kmh 30.02 in1016.6 mb 0.00 in0.0 mm 0.00 in0.0 mm 0.01 in0.3 mm
10:30 AM 64.8°F18.2°C 59.5°F15.3°C 83% 7.0 mph N11.3 kmh N 13.0 mph20.9 kmh 30.02 in1016.6 mb 0.00 in0.0 mm 0.00 in0.0 mm 0.01 in0.3 mm
10:45 AM 65.5°F18.6°C 60.2°F15.7°C 83% 7.0 mph N11.3 kmh N 13.0 mph20.9 kmh 30.03 in1016.9 mb 0.00 in0.0 mm 0.00 in0.0 mm 0.01 in0.3 mm
11:00 AM 67.5°F19.7°C 61.1°F16.2°C 80% 6.0 mph NNE9.7 kmh NNE 14.0 mph22.5 kmh 30.03 in1016.9 mb 0.00 in0.0 mm 0.00 in0.0 mm 0.01 in0.3 mm
11:15 AM 67.3°F19.6°C 60.2°F15.7°C 78% 7.0 mph N11.3 kmh N 12.0 mph19.3 kmh 30.03 in1016.9 mb 0.00 in0.0 mm 0.00 in0.0 mm 0.01 in0.3 mm
11:30 AM 68.2°F20.1°C 60.7°F15.9°C 77% 6.0 mph N9.7 kmh N 12.0 mph19.3 kmh 30.03 in1016.9 mb 0.00 in0.0 mm 0.00 in0.0 mm 0.01 in0.3 mm
11:45 AM 68.4°F20.2°C 61.2°F16.2°C 78% 7.0 mph NNE11.3 kmh NNE 16.0 mph25.7 kmh 30.02 in1016.6 mb 0.00 in0.0 mm 0.00 in0.0 mm 0.01 in0.3 mm
12:00 PM 67.8°F19.9°C 60.0°F15.6°C 76% 8.0 mph NNE12.9 kmh NNE 16.0 mph25.7 kmh 30.03 in1016.9 mb 0.00 in0.0 mm 0.00 in0.0 mm 0.01 in0.3 mm
12:15 PM 66.9°F19.4°C 59.8°F15.4°C 78% 7.0 mph N11.3 kmh N 14.0 mph22.5 kmh 30.03 in1016.9 mb 0.00 in0.0 mm 0.00 in0.0 mm 0.01 in0.3 mm
12:30 PM 66.0°F18.9°C 59.7°F15.4°C 80% 8.0 mph N12.9 kmh N 14.0 mph22.5 kmh 30.02 in1016.6 mb 0.00 in0.0 mm 0.00 in0.0 mm 0.01 in0.3 mm
12:45 PM 67.6°F19.8°C 60.5°F15.8°C 78% 8.0 mph N12.9 kmh N 16.0 mph25.7 kmh 30.02 in1016.6 mb 0.00 in0.0 mm 0.00 in0.0 mm 0.01 in0.3 mm
01:00 PM 67.3°F19.6°C 60.2°F15.7°C 78% 8.0 mph N12.9 kmh N 16.0 mph25.7 kmh 30.02 in1016.6 mb 0.00 in0.0 mm 0.00 in0.0 mm 0.01 in0.3 mm
01:15 PM 66.7°F19.3°C 59.7°F15.4°C 78% 9.0 mph NNE14.5 kmh NNE 18.0 mph29.0 kmh 30.02 in1016.6 mb 0.00 in0.0 mm 0.00 in0.0 mm 0.01 in0.3 mm
01:30 PM 67.1°F19.5°C 59.3°F15.2°C 76% 10.0 mph NNE16.1 kmh NNE 18.0 mph29.0 kmh 30.01 in1016.3 mb 0.00 in0.0 mm 0.00 in0.0 mm 0.01 in0.3 mm
01:45 PM 67.3°F19.6°C 59.5°F15.3°C 76% 10.0 mph NNE16.1 kmh NNE 18.0 mph29.0 kmh 30.01 in1016.3 mb 0.00 in0.0 mm 0.00 in0.0 mm 0.01 in0.3 mm
02:00 PM 67.3°F19.6°C 59.5°F15.3°C 76% 10.0 mph NNE16.1 kmh NNE 21.0 mph33.8 kmh 30.00 in1015.9 mb 0.00 in0.0 mm 0.00 in0.0 mm 0.01 in0.3 mm
02:15 PM 66.9°F19.4°C 59.5°F15.3°C 77% 11.0 mph NNE17.7 kmh NNE 19.0 mph30.6 kmh 30.00 in1015.9 mb 0.00 in0.0 mm 0.00 in0.0 mm 0.01 in0.3 mm
02:30 PM 67.1°F19.5°C 59.6°F15.3°C 77% 10.0 mph NNE16.1 kmh NNE 19.0 mph30.6 kmh 30.00 in1015.9 mb 0.00 in0.0 mm 0.00 in0.0 mm 0.01 in0.3 mm
02:45 PM 66.6°F19.2°C 59.1°F15.1°C 77% 10.0 mph NNE16.1 kmh NNE 20.0 mph32.2 kmh 30.00 in1015.9 mb 0.00 in0.0 mm 0.00 in0.0 mm 0.01 in0.3 mm
03:00 PM 66.6°F19.2°C 59.1°F15.1°C 77% 12.0 mph NNE19.3 kmh NNE 20.0 mph32.2 kmh 29.99 in1015.6 mb 0.00 in0.0 mm 0.00 in0.0 mm 0.01 in0.3 mm
03:15 PM 66.0°F18.9°C 59.0°F15.0°C 78% 11.0 mph NNE17.7 kmh NNE 18.0 mph29.0 kmh 29.99 in1015.6 mb 0.00 in0.0 mm 0.00 in0.0 mm 0.01 in0.3 mm
03:30 PM 66.0°F18.9°C 59.3°F15.2°C 79% 10.0 mph NNE16.1 kmh NNE 18.0 mph29.0 kmh 29.98 in1015.2 mb 0.00 in0.0 mm 0.00 in0.0 mm 0.01 in0.3 mm
03:45 PM 65.1°F18.4°C 58.4°F14.7°C 79% 11.0 mph NNE17.7 kmh NNE 18.0 mph29.0 kmh 29.98 in1015.2 mb 0.00 in0.0 mm 0.00 in0.0 mm 0.01 in0.3 mm
04:00 PM 64.9°F18.3°C 58.3°F14.6°C 79% 12.0 mph NNE19.3 kmh NNE 22.0 mph35.4 kmh 29.98 in1015.2 mb 0.00 in0.0 mm 0.00 in0.0 mm 0.01 in0.3 mm
04:15 PM 65.1°F18.4°C 58.4°F14.7°C 79% 10.0 mph NNE16.1 kmh NNE 18.0 mph29.0 kmh 29.97 in1014.9 mb 0.00 in0.0 mm 0.00 in0.0 mm 0.01 in0.3 mm
04:30 PM 65.5°F18.6°C 58.8°F14.9°C 79% 9.0 mph NNE14.5 kmh NNE 17.0 mph27.4 kmh 29.98 in1015.2 mb 0.00 in0.0 mm 0.00 in0.0 mm 0.01 in0.3 mm
04:45 PM 65.5°F18.6°C 58.8°F14.9°C 79% 10.0 mph NNE16.1 kmh NNE 20.0 mph32.2 kmh 29.97 in1014.9 mb 0.00 in0.0 mm 0.00 in0.0 mm 0.01 in0.3 mm
05:00 PM 65.1°F18.4°C 58.8°F14.9°C 80% 9.0 mph NNE14.5 kmh NNE 17.0 mph27.4 kmh 29.97 in1014.9 mb 0.00 in0.0 mm 0.00 in0.0 mm 0.01 in0.3 mm
05:15 PM 64.2°F17.9°C 58.3°F14.6°C 81% 9.0 mph NNE14.5 kmh NNE 16.0 mph25.7 kmh 29.97 in1014.9 mb 0.00 in0.0 mm 0.00 in0.0 mm 0.01 in0.3 mm
05:30 PM 64.2°F17.9°C 58.3°F14.6°C 81% 9.0 mph NE14.5 kmh NE 17.0 mph27.4 kmh 29.97 in1014.9 mb 0.00 in0.0 mm 0.00 in0.0 mm 0.01 in0.3 mm
05:45 PM 64.0°F17.8°C 58.1°F14.5°C 81% 9.0 mph NNE14.5 kmh NNE 18.0 mph29.0 kmh 29.97 in1014.9 mb 0.00 in0.0 mm 0.00 in0.0 mm 0.01 in0.3 mm
06:00 PM 63.1°F17.3°C 57.9°F14.4°C 83% 9.0 mph NNE14.5 kmh NNE 16.0 mph25.7 kmh 29.97 in1014.9 mb 0.00 in0.0 mm 0.00 in0.0 mm 0.01 in0.3 mm
06:15 PM 63.1°F17.3°C 57.9°F14.4°C 83% 9.0 mph NNE14.5 kmh NNE 16.0 mph25.7 kmh 29.97 in1014.9 mb 0.00 in0.0 mm 0.00 in0.0 mm 0.01 in0.3 mm
06:30 PM 63.3°F17.4°C 58.1°F14.5°C 83% 9.0 mph NNE14.5 kmh NNE 16.0 mph25.7 kmh 29.97 in1014.9 mb 0.00 in0.0 mm 0.00 in0.0 mm 0.01 in0.3 mm
06:45 PM 62.4°F16.9°C 57.8°F14.3°C 85% 9.0 mph NNE14.5 kmh NNE 18.0 mph29.0 kmh 29.97 in1014.9 mb 0.00 in0.0 mm 0.00 in0.0 mm 0.01 in0.3 mm
07:00 PM 62.4°F16.9°C 57.8°F14.3°C 85% 8.0 mph NNE12.9 kmh NNE 18.0 mph29.0 kmh 29.97 in1014.9 mb 0.00 in0.0 mm 0.00 in0.0 mm 0.01 in0.3 mm
07:15 PM 61.9°F16.6°C 57.3°F14.1°C 85% 8.0 mph NNE12.9 kmh NNE 14.0 mph22.5 kmh 29.97 in1014.9 mb 0.00 in0.0 mm 0.00 in0.0 mm 0.01 in0.3 mm
07:30 PM 61.3°F16.3°C 57.1°F13.9°C 86% 8.0 mph NNE12.9 kmh NNE 16.0 mph25.7 kmh 29.97 in1014.9 mb 0.00 in0.0 mm 0.00 in0.0 mm 0.01 in0.3 mm
07:45 PM 61.5°F16.4°C 57.3°F14.1°C 86% 7.0 mph NNE11.3 kmh NNE 14.0 mph22.5 kmh 29.97 in1014.9 mb 0.00 in0.0 mm 0.00 in0.0 mm 0.01 in0.3 mm
08:00 PM 61.9°F16.6°C 57.3°F14.1°C 85% 8.0 mph NNE12.9 kmh NNE 14.0 mph22.5 kmh 29.97 in1014.9 mb 0.00 in0.0 mm 0.00 in0.0 mm 0.01 in0.3 mm
08:15 PM 61.0°F16.1°C 56.8°F13.8°C 86% 8.0 mph NNE12.9 kmh NNE 16.0 mph25.7 kmh 29.98 in1015.2 mb 0.00 in0.0 mm 0.00 in0.0 mm 0.01 in0.3 mm
08:30 PM 60.4°F15.8°C 56.6°F13.7°C 87% 9.0 mph NNE14.5 kmh NNE 16.0 mph25.7 kmh 29.98 in1015.2 mb 0.00 in0.0 mm 0.00 in0.0 mm 0.01 in0.3 mm
08:45 PM 60.4°F15.8°C 56.9°F13.8°C 88% 8.0 mph NNE12.9 kmh NNE 14.0 mph22.5 kmh 29.98 in1015.2 mb 0.00 in0.0 mm 0.00 in0.0 mm 0.01 in0.3 mm
09:00 PM 59.9°F15.5°C 56.6°F13.7°C 89% 7.0 mph NNE11.3 kmh NNE 16.0 mph25.7 kmh 29.98 in1015.2 mb 0.00 in0.0 mm 0.00 in0.0 mm 0.01 in0.3 mm
09:15 PM 60.1°F15.6°C 56.8°F13.8°C 89% 6.0 mph NNE9.7 kmh NNE 12.0 mph19.3 kmh 29.98 in1015.2 mb 0.00 in0.0 mm 0.00 in0.0 mm 0.01 in0.3 mm
09:30 PM 59.9°F15.5°C 57.3°F14.1°C 91% 6.0 mph NNE9.7 kmh NNE 12.0 mph19.3 kmh 29.98 in1015.2 mb 0.00 in0.0 mm 0.00 in0.0 mm 0.01 in0.3 mm
09:45 PM 59.7°F15.4°C 57.1°F13.9°C 91% 5.0 mph N8.0 kmh N 11.0 mph17.7 kmh 29.97 in1014.9 mb 0.00 in0.0 mm 0.00 in0.0 mm 0.01 in0.3 mm
10:00 PM 59.5°F15.3°C 56.9°F13.8°C 91% 1.0 mph NNE1.6 kmh NNE 8.0 mph12.9 kmh 29.97 in1014.9 mb 0.00 in0.0 mm 0.00 in0.0 mm 0.01 in0.3 mm
10:15 PM 59.2°F15.1°C 56.9°F13.8°C 92% Calm Calm 2.0 mph3.2 kmh 29.97 in1014.9 mb 0.00 in0.0 mm 0.00 in0.0 mm 0.01 in0.3 mm
10:30 PM 59.4°F15.2°C 57.3°F14.1°C 93% Calm Calm 1.0 mph1.6 kmh 29.96 in1014.6 mb 0.00 in0.0 mm 0.00 in0.0 mm 0.01 in0.3 mm
10:45 PM 60.4°F15.8°C 58.4°F14.7°C 93% 1.0 mph ENE1.6 kmh ENE 5.0 mph8.0 kmh 29.96 in1014.6 mb 0.00 in0.0 mm 0.00 in0.0 mm 0.01 in0.3 mm
11:00 PM 62.1°F16.7°C 59.4°F15.2°C 91% 1.0 mph E1.6 kmh E 6.0 mph9.7 kmh 29.97 in1014.9 mb 0.00 in0.0 mm 0.00 in0.0 mm 0.01 in0.3 mm
11:15 PM 61.2°F16.2°C 58.2°F14.6°C 90% Calm Calm 2.0 mph3.2 kmh 29.97 in1014.9 mb 0.00 in0.0 mm 0.00 in0.0 mm 0.01 in0.3 mm
11:30 PM 62.2°F16.8°C 59.6°F15.3°C 91% 1.0 mph ENE1.6 kmh ENE 5.0 mph8.0 kmh 29.95 in1014.2 mb 0.00 in0.0 mm 0.00 in0.0 mm 0.01 in0.3 mm
11:45 PM 62.6°F17.0°C 59.0°F15.0°C 88% 1.0 mph NE1.6 kmh NE 6.0 mph9.7 kmh 29.95 in1014.2 mb 0.00 in0.0 mm 0.00 in0.0 mm 0.01 in0.3 mm